Time;durP1;ratioP1;P1;durP2;ratioP2;P2;SDS_P1;SDS_P2;PMS_P1;PMS_P2;Temp;Humidity;BMP_temperature;BMP_pressure;BME280_temperature;BME280_humidity;BME280_pressure;Samples;Min_cycle;Max_cycle;Signal;HPM_P1;HPM_P2
2021/12/24 00:01:14;;;;;;;53.07;33.90;;;;;;;;;;4990701;28;20049;-61
2021/12/24 00:03:40;;;;;;;45.80;30.63;;;;;;;;;;5009047;28;20384;-62
2021/12/24 00:06:07;;;;;;;48.43;31.40;;;;;;;;;;4995201;28;20041;-62
2021/12/24 00:08:34;;;;;;;48.83;31.70;;;;;;;;;;5012133;28;20032;-62
2021/12/24 00:11:01;;;;;;;48.20;31.60;;;;;;;;;;5007875;28;20035;-62
2021/12/24 00:13:30;;;;;;;47.40;32.53;;;;;;;;;;5012080;28;22227;-61
2021/12/24 00:16:23;;;;;;;51.00;33.30;;;;;;;;;;5011384;28;20037;-62
2021/12/24 00:18:57;;;;;;;50.00;32.63;;;;;;;;;;5011578;28;20108;-62
2021/12/24 00:37:22;;;;;;;;;;;;;;;;;;5016312;28;20045;-62
2021/12/24 00:42:34;;;;;;;44.67;28.97;;;;;;;;;;5008795;28;20095;-62
2021/12/24 00:45:00;;;;;;;45.67;29.50;;;;;;;;;;5016657;28;20492;-62
2021/12/24 00:47:26;;;;;;;47.77;31.20;;;;;;;;;;5016854;28;20045;-62
2021/12/24 00:49:55;;;;;;;44.23;31.23;;;;;;;;;;5010273;28;20034;-62
2021/12/24 00:52:44;;;;;;;47.20;31.23;;;;;;;;;;5005861;28;20443;-62
2021/12/24 00:55:09;;;;;;;44.30;30.60;;;;;;;;;;5014042;28;20502;-62
2021/12/24 00:57:46;;;;;;;45.43;29.40;;;;;;;;;;5016377;28;20365;-62
2021/12/24 01:00:17;;;;;;;47.33;29.90;;;;;;;;;;5018471;28;20038;-62
2021/12/24 01:02:43;;;;;;;45.70;29.80;;;;;;;;;;5016828;28;20026;-62
2021/12/24 01:05:10;;;;;;;43.77;29.03;;;;;;;;;;5014622;28;20029;-62
2021/12/24 01:07:36;;;;;;;45.33;30.40;;;;;;;;;;5016577;28;20518;-62
2021/12/24 01:10:04;;;;;;;42.97;30.87;;;;;;;;;;5014813;28;20028;-62
2021/12/24 01:12:30;;;;;;;45.00;29.53;;;;;;;;;;4996927;28;20088;-62
2021/12/24 01:14:56;;;;;;;45.37;29.00;;;;;;;;;;5010620;28;20022;-62
2021/12/24 01:20:13;;;;;;;45.23;30.60;;;;;;;;;;5008821;28;20096;-62
2021/12/24 01:25:20;;;;;;;44.97;30.17;;;;;;;;;;4991931;28;20030;-62
2021/12/24 01:38:24;;;;;;;41.57;28.27;;;;;;;;;;5002554;28;20491;-62
2021/12/24 01:43:24;;;;;;;41.87;28.40;;;;;;;;;;4998364;28;20451;-62
2021/12/24 01:45:52;;;;;;;39.17;27.60;;;;;;;;;;5004598;28;20105;-62
2021/12/24 01:48:18;;;;;;;38.83;28.47;;;;;;;;;;4999787;28;20029;-62
2021/12/24 01:50:47;;;;;;;45.93;29.47;;;;;;;;;;4994323;28;20034;-62
2021/12/24 01:53:15;;;;;;;40.60;29.23;;;;;;;;;;4994807;28;20140;-62
2021/12/24 02:01:49;;;;;;;41.00;29.10;;;;;;;;;;4989769;28;20057;-62
2021/12/24 02:04:16;;;;;;;41.43;26.97;;;;;;;;;;4993327;28;20044;-62
2021/12/24 02:06:42;;;;;;;39.60;27.60;;;;;;;;;;4994800;28;20169;-62
2021/12/24 02:09:09;;;;;;;42.13;26.97;;;;;;;;;;4997212;28;20018;-62
2021/12/24 02:11:37;;;;;;;37.20;25.83;;;;;;;;;;4995108;28;20034;-62
2021/12/24 02:14:08;;;;;;;38.30;27.13;;;;;;;;;;4995584;28;20023;-62
2021/12/24 02:30:04;;;;;;;36.05;24.55;;;;;;;;;;5013606;28;20084;-62
2021/12/24 02:32:30;;;;;;;35.33;25.23;;;;;;;;;;5014227;28;20101;-62
2021/12/24 02:38:00;;;;;;;35.57;25.67;;;;;;;;;;5008897;28;20037;-62
2021/12/24 02:40:27;;;;;;;35.10;24.83;;;;;;;;;;5011297;28;20140;-62
2021/12/24 02:42:55;;;;;;;35.90;25.63;;;;;;;;;;5014249;28;20033;-62
2021/12/24 02:45:22;;;;;;;33.03;24.00;;;;;;;;;;5015891;28;20026;-62
2021/12/24 02:56:00;;;;;;;31.73;22.50;;;;;;;;;;5013263;28;20044;-62
2021/12/24 02:58:26;;;;;;;30.40;23.00;;;;;;;;;;5013137;28;20475;-62
2021/12/24 03:00:52;;;;;;;36.40;25.20;;;;;;;;;;5012689;28;20345;-62
2021/12/24 03:03:18;;;;;;;31.17;22.50;;;;;;;;;;5014534;28;20075;-62
2021/12/24 03:05:44;;;;;;;30.80;22.07;;;;;;;;;;5013219;28;20498;-62
2021/12/24 03:08:10;;;;;;;29.93;22.30;;;;;;;;;;5014362;28;20022;-62
2021/12/24 03:10:37;;;;;;;28.83;22.83;;;;;;;;;;5011591;28;20042;-62
2021/12/24 03:13:03;;;;;;;31.50;22.30;;;;;;;;;;5017071;28;20029;-62
2021/12/24 03:15:29;;;;;;;31.83;22.73;;;;;;;;;;4996496;28;20391;-62
2021/12/24 03:17:58;;;;;;;30.43;21.73;;;;;;;;;;4996590;28;20028;-62
2021/12/24 03:20:25;;;;;;;32.23;22.63;;;;;;;;;;5011517;28;20858;-62
2021/12/24 03:23:06;;;;;;;31.30;22.40;;;;;;;;;;5013847;28;20041;-62
2021/12/24 03:25:33;;;;;;;33.33;21.77;;;;;;;;;;5008529;28;20029;-62
2021/12/24 03:27:59;;;;;;;27.90;21.00;;;;;;;;;;5013272;28;20108;-62
2021/12/24 03:30:25;;;;;;;31.47;21.30;;;;;;;;;;5003657;28;20399;-62
2021/12/24 03:32:51;;;;;;;29.13;20.50;;;;;;;;;;5003923;28;20057;-62
2021/12/24 03:35:18;;;;;;;28.50;20.93;;;;;;;;;;5014791;28;20029;-62
2021/12/24 03:37:44;;;;;;;30.40;21.27;;;;;;;;;;5011377;28;20036;-62
2021/12/24 03:40:10;;;;;;;27.93;19.53;;;;;;;;;;5009180;28;20038;-62
2021/12/24 03:42:38;;;;;;;25.80;19.37;;;;;;;;;;5013847;28;20026;-62
2021/12/24 03:45:19;;;;;;;25.17;19.90;;;;;;;;;;4999156;28;20038;-62
2021/12/24 03:47:52;;;;;;;25.17;18.47;;;;;;;;;;5010275;28;20407;-62
2021/12/24 03:50:19;;;;;;;25.27;18.73;;;;;;;;;;5013424;28;20032;-62
2021/12/24 03:53:04;;;;;;;27.67;19.37;;;;;;;;;;5015316;28;20045;-62
2021/12/24 03:55:30;;;;;;;24.80;18.08;;;;;;;;;;5003978;28;20089;-62
2021/12/24 03:57:56;;;;;;;25.80;19.30;;;;;;;;;;5010520;28;20026;-63
2021/12/24 04:00:27;;;;;;;24.57;18.50;;;;;;;;;;5002782;28;20038;-62
2021/12/24 04:02:53;;;;;;;25.57;19.30;;;;;;;;;;5004092;28;20030;-63
2021/12/24 04:05:19;;;;;;;25.00;18.73;;;;;;;;;;4991548;28;20526;-62
2021/12/24 04:07:45;;;;;;;25.00;18.03;;;;;;;;;;5015067;28;20037;-62
2021/12/24 04:10:39;;;;;;;23.20;16.53;;;;;;;;;;5013171;28;20065;-62
2021/12/24 04:13:06;;;;;;;24.00;17.37;;;;;;;;;;4993279;28;20072;-63
2021/12/24 04:15:32;;;;;;;22.80;16.93;;;;;;;;;;5013048;28;20059;-62
2021/12/24 04:17:58;;;;;;;25.53;18.17;;;;;;;;;;5012142;28;20085;-62
2021/12/24 04:25:54;;;;;;;16.60;12.77;;;;;;;;;;5011991;28;20038;-62
2021/12/24 04:34:34;;;;;;;20.43;15.03;;;;;;;;;;4998718;28;20044;-62
2021/12/24 05:03:54;;;;;;;21.40;15.57;;;;;;;;;;5013617;28;20037;-62
2021/12/24 05:08:52;;;;;;;20.97;15.70;;;;;;;;;;5010414;28;20026;-62
2021/12/24 05:11:19;;;;;;;22.90;16.47;;;;;;;;;;5012714;28;20112;-62
2021/12/24 05:13:45;;;;;;;21.40;15.10;;;;;;;;;;5013746;28;20491;-62
2021/12/24 05:21:36;;;;;;;24.63;16.63;;;;;;;;;;5015706;28;20057;-62
2021/12/24 05:24:05;;;;;;;23.40;15.57;;;;;;;;;;5017113;28;20079;-62
2021/12/24 05:26:32;;;;;;;24.30;15.93;;;;;;;;;;5016079;28;20105;-62
2021/12/24 05:28:58;;;;;;;23.07;15.43;;;;;;;;;;4997860;28;20037;-62
2021/12/24 05:31:24;;;;;;;25.73;16.23;;;;;;;;;;5015821;28;20030;-62
2021/12/24 05:33:51;;;;;;;22.27;15.20;;;;;;;;;;5021646;28;20394;-62
2021/12/24 05:36:17;;;;;;;20.93;15.37;;;;;;;;;;4998590;28;20030;-62
2021/12/24 05:38:43;;;;;;;18.53;14.07;;;;;;;;;;5015184;28;20105;-62
2021/12/24 05:41:10;;;;;;;19.23;15.03;;;;;;;;;;5029053;28;20048;-62
2021/12/24 05:43:36;;;;;;;22.37;15.37;;;;;;;;;;5015205;28;20029;-62
2021/12/24 05:46:02;;;;;;;20.93;14.87;;;;;;;;;;5015630;28;20395;-62
2021/12/24 05:48:28;;;;;;;21.63;14.80;;;;;;;;;;4996819;28;20053;-62
2021/12/24 05:50:54;;;;;;;20.20;14.70;;;;;;;;;;5033487;28;20442;-62
2021/12/24 05:53:21;;;;;;;18.53;13.00;;;;;;;;;;5013924;28;20106;-62
2021/12/24 05:55:47;;;;;;;19.70;14.53;;;;;;;;;;5015447;28;20057;-62
2021/12/24 05:58:13;;;;;;;17.10;13.40;;;;;;;;;;5013057;28;20133;-62
2021/12/24 06:00:40;;;;;;;17.80;12.83;;;;;;;;;;5024172;28;20617;-62
2021/12/24 06:03:07;;;;;;;22.27;14.37;;;;;;;;;;5009955;28;20228;-62
2021/12/24 06:05:34;;;;;;;15.97;11.97;;;;;;;;;;5015360;28;20026;-63
2021/12/24 06:08:00;;;;;;;15.93;12.83;;;;;;;;;;4996654;28;20034;-62
2021/12/24 06:10:26;;;;;;;19.50;13.17;;;;;;;;;;5021998;28;20091;-62
2021/12/24 06:12:52;;;;;;;18.87;12.27;;;;;;;;;;5026510;28;20018;-62
2021/12/24 06:18:25;;;;;;;17.00;12.37;;;;;;;;;;5001764;28;20466;-62
2021/12/24 06:20:53;;;;;;;17.50;12.17;;;;;;;;;;5003188;28;20046;-62
2021/12/24 06:23:21;;;;;;;18.17;12.57;;;;;;;;;;4996272;28;20034;-63
2021/12/24 06:25:47;;;;;;;18.40;13.27;;;;;;;;;;5013642;28;20034;-63
2021/12/24 06:28:13;;;;;;;18.07;12.93;;;;;;;;;;5012872;28;20097;-62
2021/12/24 06:30:39;;;;;;;15.87;12.03;;;;;;;;;;5013496;28;20033;-62
2021/12/24 06:33:05;;;;;;;15.97;11.97;;;;;;;;;;4995806;28;20402;-62
2021/12/24 06:35:31;;;;;;;18.20;12.40;;;;;;;;;;5014541;28;20108;-63
2021/12/24 06:37:58;;;;;;;14.57;11.03;;;;;;;;;;5013576;28;20080;-62
2021/12/24 06:40:25;;;;;;;18.07;12.17;;;;;;;;;;5027497;28;20127;-62
2021/12/24 06:42:52;;;;;;;16.77;11.10;;;;;;;;;;5002922;28;20031;-63
2021/12/24 06:45:22;;;;;;;17.13;12.30;;;;;;;;;;5011557;28;20022;-62
2021/12/24 06:47:48;;;;;;;15.20;10.87;;;;;;;;;;5014237;28;20018;-62
2021/12/24 06:50:15;;;;;;;15.27;10.77;;;;;;;;;;5023440;28;20031;-62
2021/12/24 06:52:41;;;;;;;14.00;10.23;;;;;;;;;;4997065;28;20034;-62
2021/12/24 06:55:08;;;;;;;14.43;9.67;;;;;;;;;;5012527;28;20059;-62
2021/12/24 06:57:34;;;;;;;14.03;10.63;;;;;;;;;;5013948;28;20025;-62
2021/12/24 07:00:00;;;;;;;16.93;11.83;;;;;;;;;;5013126;28;20042;-61
2021/12/24 07:02:26;;;;;;;15.53;10.93;;;;;;;;;;5020857;28;20028;-62
2021/12/24 07:04:52;;;;;;;17.63;10.83;;;;;;;;;;4994991;28;20365;-62
2021/12/24 07:07:18;;;;;;;18.20;12.23;;;;;;;;;;5014144;28;20036;-62
2021/12/24 07:09:44;;;;;;;19.33;12.83;;;;;;;;;;5013489;28;20026;-61
2021/12/24 07:12:11;;;;;;;20.60;14.70;;;;;;;;;;5001034;28;20037;-62
2021/12/24 07:14:38;;;;;;;25.17;15.13;;;;;;;;;;5011824;28;20026;-63
2021/12/24 07:17:04;;;;;;;26.33;15.77;;;;;;;;;;5011184;28;20046;-62
2021/12/24 07:19:30;;;;;;;24.10;16.27;;;;;;;;;;5012456;28;20156;-61
2021/12/24 07:21:56;;;;;;;29.00;17.77;;;;;;;;;;5011967;28;20559;-62
2021/12/24 07:24:22;;;;;;;24.47;16.80;;;;;;;;;;4993907;28;20022;-62
2021/12/24 07:26:48;;;;;;;29.37;19.33;;;;;;;;;;5011932;28;20022;-62
2021/12/24 07:29:14;;;;;;;26.67;18.03;;;;;;;;;;4990356;28;20510;-62
2021/12/24 07:31:40;;;;;;;25.40;18.37;;;;;;;;;;4996770;28;20030;-62
2021/12/24 07:34:06;;;;;;;25.37;18.47;;;;;;;;;;5012911;28;20080;-61
2021/12/24 07:36:32;;;;;;;28.73;19.90;;;;;;;;;;5016607;28;20487;-62
2021/12/24 07:38:58;;;;;;;27.33;19.37;;;;;;;;;;4994925;28;20034;-62
2021/12/24 07:41:25;;;;;;;32.57;19.67;;;;;;;;;;5011862;28;20038;-62
2021/12/24 07:43:52;;;;;;;32.50;20.50;;;;;;;;;;5008259;28;20084;-62
2021/12/24 07:46:19;;;;;;;31.57;19.07;;;;;;;;;;4994400;28;20451;-62
2021/12/24 07:48:49;;;;;;;31.93;19.83;;;;;;;;;;5012987;28;20364;-62
2021/12/24 07:54:01;;;;;;;37.17;23.97;;;;;;;;;;5010530;28;20112;-62
2021/12/24 07:56:28;;;;;;;33.83;23.37;;;;;;;;;;5006740;28;20551;-62
2021/12/24 07:58:54;;;;;;;32.90;22.47;;;;;;;;;;5008230;28;20114;-62
2021/12/24 08:01:22;;;;;;;35.83;24.03;;;;;;;;;;5010989;28;20069;-62
2021/12/24 08:03:48;;;;;;;36.63;25.37;;;;;;;;;;4980300;28;20030;-61
2021/12/24 08:06:14;;;;;;;39.50;25.73;;;;;;;;;;4995789;28;20026;-61
2021/12/24 08:08:40;;;;;;;40.10;25.70;;;;;;;;;;5010517;28;20080;-61
2021/12/24 08:11:06;;;;;;;42.37;26.23;;;;;;;;;;5010747;28;20450;-61
2021/12/24 08:13:32;;;;;;;45.87;28.30;;;;;;;;;;4995565;28;20030;-61
2021/12/24 08:16:00;;;;;;;43.83;26.27;;;;;;;;;;5011783;28;20128;-61
2021/12/24 08:18:26;;;;;;;39.83;26.23;;;;;;;;;;5005555;28;20113;-62
2021/12/24 08:20:52;;;;;;;54.73;35.60;;;;;;;;;;4991592;28;20142;-61
2021/12/24 08:23:18;;;;;;;55.70;35.93;;;;;;;;;;5009427;28;20069;-62
2021/12/24 08:25:44;;;;;;;54.97;34.93;;;;;;;;;;5013885;28;20025;-62
2021/12/24 08:28:10;;;;;;;55.53;35.33;;;;;;;;;;5009000;28;20369;-62
2021/12/24 08:30:36;;;;;;;60.03;37.07;;;;;;;;;;5012012;28;20438;-62
2021/12/24 08:33:02;;;;;;;57.80;39.93;;;;;;;;;;5011880;28;20423;-61
2021/12/24 08:35:29;;;;;;;59.80;39.40;;;;;;;;;;5012046;28;20108;-62
2021/12/24 08:37:55;;;;;;;60.20;38.57;;;;;;;;;;5009763;28;20030;-60
2021/12/24 08:40:21;;;;;;;59.97;40.13;;;;;;;;;;5011539;28;20061;-61
2021/12/24 08:42:47;;;;;;;57.93;36.93;;;;;;;;;;5003103;28;20029;-61
2021/12/24 08:45:13;;;;;;;58.33;38.53;;;;;;;;;;4988023;28;20041;-61
2021/12/24 08:47:40;;;;;;;58.40;36.93;;;;;;;;;;5011126;28;20034;-62
2021/12/24 08:50:07;;;;;;;56.43;37.73;;;;;;;;;;5011992;28;20033;-60
2021/12/24 08:52:33;;;;;;;53.93;37.30;;;;;;;;;;5016262;28;20014;-60
2021/12/24 08:54:59;;;;;;;56.53;37.20;;;;;;;;;;5013763;28;20060;-59
2021/12/24 08:57:59;;;;;;;57.80;36.47;;;;;;;;;;5016088;28;20030;-60
2021/12/24 09:00:25;;;;;;;53.07;35.33;;;;;;;;;;5012710;28;20127;-60
2021/12/24 09:02:51;;;;;;;57.00;36.43;;;;;;;;;;5015012;28;20057;-61
2021/12/24 09:05:17;;;;;;;54.13;36.93;;;;;;;;;;5014455;28;20029;-61
2021/12/24 09:07:43;;;;;;;55.07;36.37;;;;;;;;;;5019753;28;20104;-61
2021/12/24 09:10:10;;;;;;;52.83;36.93;;;;;;;;;;5014178;28;20022;-61
2021/12/24 09:12:36;;;;;;;54.30;34.67;;;;;;;;;;4983169;28;20096;-61
2021/12/24 09:15:04;;;;;;;50.53;35.10;;;;;;;;;;5015088;28;20113;-61
2021/12/24 09:17:31;;;;;;;51.27;35.43;;;;;;;;;;5021013;28;20021;-61
2021/12/24 09:19:58;;;;;;;60.57;35.00;;;;;;;;;;5015491;28;20025;-61
2021/12/24 09:22:30;;;;;;;54.73;34.73;;;;;;;;;;4998745;28;20046;-61
2021/12/24 09:24:57;;;;;;;53.33;34.70;;;;;;;;;;4996635;28;20018;-61
2021/12/24 09:27:24;;;;;;;52.37;33.93;;;;;;;;;;5016266;28;20034;-62
2021/12/24 09:29:50;;;;;;;51.10;34.13;;;;;;;;;;4997761;28;20423;-61
2021/12/24 09:32:16;;;;;;;47.40;32.03;;;;;;;;;;5015124;28;20137;-62
2021/12/24 09:34:43;;;;;;;57.10;37.53;;;;;;;;;;5014503;28;20030;-61
2021/12/24 09:37:09;;;;;;;49.60;33.37;;;;;;;;;;5015052;28;20030;-62
2021/12/24 09:39:35;;;;;;;52.50;34.40;;;;;;;;;;4997663;28;20150;-62
2021/12/24 09:42:02;;;;;;;47.93;32.67;;;;;;;;;;5010215;28;20042;-62
2021/12/24 09:44:28;;;;;;;49.57;32.87;;;;;;;;;;5014082;28;20080;-62
2021/12/24 09:46:55;;;;;;;47.07;33.07;;;;;;;;;;5017902;28;20134;-62
2021/12/24 09:49:22;;;;;;;45.60;30.97;;;;;;;;;;5015666;28;20029;-61
2021/12/24 09:51:51;;;;;;;49.73;32.80;;;;;;;;;;5016055;28;20123;-61
2021/12/24 09:54:18;;;;;;;48.63;32.00;;;;;;;;;;5014974;28;20037;-61
2021/12/24 09:56:45;;;;;;;44.17;32.60;;;;;;;;;;5013843;28;20080;-61
2021/12/24 09:59:11;;;;;;;51.33;34.33;;;;;;;;;;4997580;28;20030;-61
2021/12/24 10:01:39;;;;;;;52.37;33.17;;;;;;;;;;5011722;28;20084;-61
2021/12/24 10:04:05;;;;;;;47.17;32.73;;;;;;;;;;5015117;28;20442;-61
2021/12/24 10:06:32;;;;;;;49.27;34.20;;;;;;;;;;5019674;28;20077;-61
2021/12/24 10:09:03;;;;;;;49.27;32.37;;;;;;;;;;5012545;28;20021;-61
2021/12/24 10:11:30;;;;;;;49.03;31.60;;;;;;;;;;5012631;28;20026;-61
2021/12/24 10:14:03;;;;;;;49.20;33.03;;;;;;;;;;5010361;28;20471;-61
2021/12/24 10:16:29;;;;;;;50.07;34.40;;;;;;;;;;5013167;28;20025;-61
2021/12/24 10:18:56;;;;;;;47.30;33.23;;;;;;;;;;4998011;28;20084;-61
2021/12/24 10:21:27;;;;;;;49.27;33.23;;;;;;;;;;4994506;28;20050;-61
2021/12/24 10:23:57;;;;;;;52.20;35.57;;;;;;;;;;5007901;28;20034;-63
2021/12/24 10:26:25;;;;;;;53.73;34.90;;;;;;;;;;5008168;28;20064;-61
2021/12/24 10:28:57;;;;;;;45.77;33.87;;;;;;;;;;5014143;28;20376;-61
2021/12/24 10:31:25;;;;;;;50.87;33.10;;;;;;;;;;5013932;28;20083;-61
2021/12/24 10:34:08;;;;;;;50.73;33.73;;;;;;;;;;4996064;28;20040;-61
2021/12/24 10:36:55;;;;;;;48.47;34.53;;;;;;;;;;5009603;28;20045;-61
2021/12/24 10:39:23;;;;;;;53.20;35.20;;;;;;;;;;5007250;28;20055;-61
2021/12/24 10:41:50;;;;;;;52.23;35.37;;;;;;;;;;5011503;28;20034;-62
2021/12/24 10:44:17;;;;;;;47.53;33.90;;;;;;;;;;5010169;28;20026;-62
2021/12/24 10:47:01;;;;;;;52.40;34.07;;;;;;;;;;5010730;28;20033;-61
2021/12/24 10:54:58;;;;;;;51.37;35.13;;;;;;;;;;5011729;28;20136;-62
2021/12/24 10:57:29;;;;;;;52.57;34.53;;;;;;;;;;5011967;28;20414;-61
2021/12/24 10:59:57;;;;;;;49.03;34.13;;;;;;;;;;5012147;28;20092;-61
2021/12/24 11:02:28;;;;;;;52.37;34.90;;;;;;;;;;5007332;28;20110;-61
2021/12/24 11:04:54;;;;;;;55.87;37.07;;;;;;;;;;4997801;28;20097;-61
2021/12/24 11:07:32;;;;;;;51.07;36.03;;;;;;;;;;5010948;28;20053;-61
2021/12/24 11:10:04;;;;;;;50.97;34.97;;;;;;;;;;5013454;28;20361;-61
2021/12/24 11:12:38;;;;;;;51.33;34.43;;;;;;;;;;4993705;28;20483;-61
2021/12/24 11:15:17;;;;;;;55.80;36.00;;;;;;;;;;5011359;28;20030;-61
2021/12/24 11:17:43;;;;;;;53.93;35.77;;;;;;;;;;5006857;28;20061;-61
2021/12/24 11:20:10;;;;;;;48.03;34.83;;;;;;;;;;5013305;28;20076;-61
2021/12/24 11:22:49;;;;;;;53.10;35.23;;;;;;;;;;5012044;28;20053;-61
2021/12/24 11:25:15;;;;;;;53.80;37.47;;;;;;;;;;5012720;28;20069;-61
2021/12/24 11:27:41;;;;;;;56.33;37.10;;;;;;;;;;5006310;28;20444;-61
2021/12/24 11:30:08;;;;;;;55.17;36.07;;;;;;;;;;5008127;28;20017;-61
2021/12/24 11:32:35;;;;;;;48.60;33.83;;;;;;;;;;4992150;28;20028;-61
2021/12/24 11:35:01;;;;;;;51.70;34.97;;;;;;;;;;5010300;28;20017;-61
2021/12/24 11:37:28;;;;;;;50.40;35.50;;;;;;;;;;5007122;28;20069;-61
2021/12/24 11:39:54;;;;;;;58.47;40.37;;;;;;;;;;5002726;28;20035;-61
2021/12/24 11:42:21;;;;;;;57.07;38.23;;;;;;;;;;5012543;28;20037;-61
2021/12/24 11:44:48;;;;;;;53.40;35.60;;;;;;;;;;5009595;28;20488;-62
2021/12/24 11:47:15;;;;;;;51.67;36.23;;;;;;;;;;5012764;28;20034;-61
2021/12/24 11:49:41;;;;;;;51.93;34.53;;;;;;;;;;5010455;28;20029;-61
2021/12/24 11:52:07;;;;;;;53.70;34.60;;;;;;;;;;5002603;28;20490;-61
2021/12/24 11:54:33;;;;;;;53.83;38.23;;;;;;;;;;5012052;28;20028;-61
2021/12/24 11:56:59;;;;;;;52.30;35.90;;;;;;;;;;5011944;28;20076;-61
2021/12/24 11:59:39;;;;;;;56.27;34.73;;;;;;;;;;5009258;28;20368;-61
2021/12/24 12:02:06;;;;;;;54.23;36.20;;;;;;;;;;4993424;28;20095;-61
2021/12/24 12:04:32;;;;;;;50.37;34.83;;;;;;;;;;5012480;28;20563;-61
2021/12/24 12:07:16;;;;;;;55.17;35.20;;;;;;;;;;5010903;28;20029;-61
2021/12/24 12:09:43;;;;;;;51.53;34.57;;;;;;;;;;5013271;28;20533;-61
2021/12/24 12:12:13;;;;;;;50.40;32.97;;;;;;;;;;5011457;28;20030;-61
2021/12/24 12:14:39;;;;;;;46.63;32.57;;;;;;;;;;5011383;28;20034;-61
2021/12/24 12:17:07;;;;;;;53.13;33.57;;;;;;;;;;5004119;28;20036;-61
2021/12/24 12:19:47;;;;;;;46.57;32.03;;;;;;;;;;5005432;28;20092;-61
2021/12/24 12:25:00;;;;;;;54.13;34.87;;;;;;;;;;5000115;28;20057;-60
2021/12/24 12:27:29;;;;;;;54.37;35.67;;;;;;;;;;5007476;28;20460;-61
2021/12/24 12:29:55;;;;;;;55.00;35.90;;;;;;;;;;5009742;28;20036;-61
2021/12/24 12:32:21;;;;;;;54.30;36.73;;;;;;;;;;5012073;28;20076;-62
2021/12/24 12:34:49;;;;;;;50.67;35.03;;;;;;;;;;5011314;28;20040;-62
2021/12/24 12:37:21;;;;;;;55.87;36.53;;;;;;;;;;5011316;28;20037;-62
2021/12/24 12:39:48;;;;;;;53.33;35.50;;;;;;;;;;5010600;28;20022;-62
2021/12/24 12:42:16;;;;;;;58.37;37.60;;;;;;;;;;5011362;28;20080;-61
2021/12/24 12:44:46;;;;;;;60.27;38.07;;;;;;;;;;5010788;28;20388;-61
2021/12/24 12:47:13;;;;;;;56.20;37.67;;;;;;;;;;5010214;28;20104;-61
2021/12/24 12:49:40;;;;;;;58.77;37.67;;;;;;;;;;5010433;28;20104;-61
2021/12/24 12:52:10;;;;;;;54.53;36.93;;;;;;;;;;5011483;28;20395;-61
2021/12/24 12:54:36;;;;;;;56.87;37.47;;;;;;;;;;5010793;28;20059;-61
2021/12/24 12:57:15;;;;;;;52.83;35.73;;;;;;;;;;5010734;28;20022;-61
2021/12/24 12:59:42;;;;;;;56.20;39.03;;;;;;;;;;5011906;28;20038;-60
2021/12/24 13:02:08;;;;;;;63.47;39.73;;;;;;;;;;5011694;28;20041;-61
2021/12/24 13:04:34;;;;;;;61.33;40.90;;;;;;;;;;5012240;28;20034;-61
2021/12/24 13:07:01;;;;;;;63.43;42.77;;;;;;;;;;5011511;28;20041;-61
2021/12/24 13:09:34;;;;;;;62.30;42.07;;;;;;;;;;5011714;28;20018;-61
2021/12/24 13:12:02;;;;;;;60.80;41.77;;;;;;;;;;4991209;28;20387;-61
2021/12/24 13:14:29;;;;;;;60.97;42.90;;;;;;;;;;5012130;28;20014;-61
2021/12/24 13:22:32;;;;;;;59.07;39.57;;;;;;;;;;5011401;28;20053;-60
2021/12/24 13:25:01;;;;;;;63.73;41.83;;;;;;;;;;5007511;28;20037;-61
2021/12/24 13:27:30;;;;;;;58.00;40.63;;;;;;;;;;5004145;28;20112;-61
2021/12/24 13:30:05;;;;;;;58.73;40.30;;;;;;;;;;5011072;28;20079;-61
2021/12/24 13:32:31;;;;;;;62.67;42.43;;;;;;;;;;5010669;28;20125;-61
2021/12/24 13:34:58;;;;;;;69.37;43.13;;;;;;;;;;5011454;28;20130;-61
2021/12/24 13:37:30;;;;;;;65.60;42.70;;;;;;;;;;5013937;28;20030;-61
2021/12/24 13:39:56;;;;;;;64.80;43.67;;;;;;;;;;5015055;28;20511;-61
2021/12/24 13:42:22;;;;;;;65.93;43.60;;;;;;;;;;5022772;28;20030;-61
2021/12/24 13:44:49;;;;;;;69.43;44.10;;;;;;;;;;4995162;28;20022;-63
2021/12/24 13:50:27;;;;;;;66.03;44.13;;;;;;;;;;5001553;28;20104;-62
2021/12/24 13:55:38;;;;;;;67.30;45.13;;;;;;;;;;5013309;28;20164;-61
2021/12/24 13:58:08;;;;;;;70.13;44.53;;;;;;;;;;5012600;28;20022;-61
2021/12/24 14:00:35;;;;;;;63.27;43.70;;;;;;;;;;4997191;28;20080;-61
2021/12/24 14:03:03;;;;;;;62.87;41.70;;;;;;;;;;5014410;28;20026;-61
2021/12/24 14:05:29;;;;;;;67.10;43.97;;;;;;;;;;5013810;28;20030;-60
2021/12/24 14:08:05;;;;;;;67.43;45.03;;;;;;;;;;5011935;28;20517;-61
2021/12/24 14:10:31;;;;;;;70.93;45.27;;;;;;;;;;5012791;28;20111;-61
2021/12/24 14:13:04;;;;;;;71.33;45.10;;;;;;;;;;5013576;28;20597;-61
2021/12/24 14:15:32;;;;;;;72.73;47.27;;;;;;;;;;5014259;28;20513;-61
2021/12/24 14:21:00;;;;;;;67.30;45.77;;;;;;;;;;5014085;28;20172;-61
2021/12/24 14:23:19;;;;;;;73.27;45.83;;;;;;;;;;5001987;28;20026;-61
2021/12/24 14:25:55;;;;;;;73.00;45.37;;;;;;;;;;5013023;28;20181;-61
2021/12/24 14:28:22;;;;;;;68.37;44.73;;;;;;;;;;5014070;28;20044;-62
2021/12/24 14:30:49;;;;;;;69.87;46.07;;;;;;;;;;5014734;28;20463;-62
2021/12/24 14:33:15;;;;;;;78.33;48.60;;;;;;;;;;5011251;28;20079;-61
2021/12/24 14:35:44;;;;;;;80.73;49.10;;;;;;;;;;5010729;28;20038;-61
2021/12/24 14:38:15;;;;;;;74.63;48.93;;;;;;;;;;5004185;28;20026;-62
2021/12/24 14:40:41;;;;;;;75.57;47.50;;;;;;;;;;5008067;28;20492;-62
2021/12/24 14:43:12;;;;;;;80.40;49.83;;;;;;;;;;4995792;28;20061;-62
2021/12/24 14:45:40;;;;;;;73.63;47.10;;;;;;;;;;5013676;28;20054;-62
2021/12/24 14:48:06;;;;;;;73.87;49.80;;;;;;;;;;5012954;28;20030;-61
2021/12/24 14:50:34;;;;;;;71.23;46.83;;;;;;;;;;5013050;28;20084;-61
2021/12/24 14:53:06;;;;;;;73.23;47.77;;;;;;;;;;5012095;28;20080;-61
2021/12/24 14:55:39;;;;;;;78.30;49.97;;;;;;;;;;5013082;28;20061;-61
2021/12/24 14:58:05;;;;;;;73.23;47.53;;;;;;;;;;4992509;28;20379;-61
2021/12/24 15:00:36;;;;;;;77.17;51.00;;;;;;;;;;5013059;28;20476;-61
2021/12/24 15:03:04;;;;;;;80.80;48.43;;;;;;;;;;4993583;28;20035;-61
2021/12/24 15:05:32;;;;;;;77.30;48.37;;;;;;;;;;5012944;28;20032;-61
2021/12/24 15:08:00;;;;;;;75.40;48.00;;;;;;;;;;5013673;28;20073;-61
2021/12/24 15:10:27;;;;;;;75.83;47.80;;;;;;;;;;5013339;28;20087;-62
2021/12/24 15:13:02;;;;;;;77.33;48.57;;;;;;;;;;5012651;28;20037;-60
2021/12/24 15:15:29;;;;;;;75.83;47.80;;;;;;;;;;5010412;28;20025;-61
2021/12/24 15:17:55;;;;;;;80.90;50.87;;;;;;;;;;5007120;28;20061;-61
2021/12/24 15:20:22;;;;;;;81.27;49.80;;;;;;;;;;5011539;28;20033;-62
2021/12/24 15:22:49;;;;;;;77.43;48.23;;;;;;;;;;5013587;28;20553;-62
2021/12/24 15:25:15;;;;;;;71.90;46.23;;;;;;;;;;5011341;28;20029;-61
2021/12/24 15:27:41;;;;;;;76.50;47.77;;;;;;;;;;4993745;28;20030;-61
2021/12/24 15:30:08;;;;;;;73.67;46.33;;;;;;;;;;5010275;28;20022;-62
2021/12/24 15:32:35;;;;;;;75.77;47.27;;;;;;;;;;5012324;28;20029;-62
2021/12/24 15:35:01;;;;;;;74.60;47.67;;;;;;;;;;5012196;28;20054;-61
2021/12/24 15:37:27;;;;;;;75.63;48.23;;;;;;;;;;4989543;28;20124;-62
2021/12/24 15:39:53;;;;;;;77.07;49.90;;;;;;;;;;4995114;28;20026;-62
2021/12/24 15:42:19;;;;;;;79.70;52.03;;;;;;;;;;5012499;28;20129;-61
2021/12/24 15:44:48;;;;;;;74.53;47.43;;;;;;;;;;5011721;28;20049;-61
2021/12/24 15:47:15;;;;;;;75.20;46.70;;;;;;;;;;5013077;28;20033;-62
2021/12/24 15:49:41;;;;;;;74.07;48.13;;;;;;;;;;5011602;28;20037;-61
2021/12/24 15:52:07;;;;;;;75.83;46.70;;;;;;;;;;4995542;28;20391;-61
2021/12/24 15:54:33;;;;;;;69.63;44.77;;;;;;;;;;4998864;28;20061;-61
2021/12/24 15:57:00;;;;;;;69.53;43.83;;;;;;;;;;5008546;28;20029;-61
2021/12/24 15:59:31;;;;;;;72.57;45.13;;;;;;;;;;5012719;28;20037;-61
2021/12/24 16:01:57;;;;;;;68.73;45.33;;;;;;;;;;5011081;28;20109;-62
2021/12/24 16:04:23;;;;;;;67.77;44.07;;;;;;;;;;5012291;28;20033;-61
2021/12/24 16:06:49;;;;;;;72.07;44.93;;;;;;;;;;5010879;28;20030;-61
2021/12/24 16:09:19;;;;;;;71.40;41.13;;;;;;;;;;5012145;28;20084;-61
2021/12/24 16:11:46;;;;;;;64.83;41.97;;;;;;;;;;5012993;28;20030;-62
2021/12/24 16:14:12;;;;;;;65.03;43.17;;;;;;;;;;5012435;28;20045;-61
2021/12/24 16:16:41;;;;;;;63.37;42.73;;;;;;;;;;5010632;28;20043;-62
2021/12/24 16:19:07;;;;;;;64.27;41.83;;;;;;;;;;5010619;28;20537;-61
2021/12/24 16:21:33;;;;;;;69.00;44.47;;;;;;;;;;5010808;28;20053;-61
2021/12/24 16:23:59;;;;;;;70.77;44.33;;;;;;;;;;5009841;28;20026;-61
2021/12/24 16:26:25;;;;;;;73.73;47.17;;;;;;;;;;5009793;28;20021;-61
2021/12/24 16:28:53;;;;;;;73.00;45.27;;;;;;;;;;5011371;28;20033;-61
2021/12/24 16:31:19;;;;;;;73.60;48.60;;;;;;;;;;5007277;28;20053;-61
2021/12/24 16:33:45;;;;;;;73.07;47.87;;;;;;;;;;5012164;28;20022;-62
2021/12/24 16:36:11;;;;;;;72.57;46.90;;;;;;;;;;5010944;28;20482;-62
2021/12/24 16:38:37;;;;;;;74.70;48.37;;;;;;;;;;5010521;28;20025;-60
2021/12/24 16:41:03;;;;;;;72.23;45.87;;;;;;;;;;5006665;28;20034;-60
2021/12/24 16:43:29;;;;;;;69.13;44.20;;;;;;;;;;5012881;28;20018;-61
2021/12/24 16:45:55;;;;;;;69.00;44.83;;;;;;;;;;5011164;28;20033;-61